Numidia, Pennsylvania
Current Conditions -  °F | °C
As of 11:55 AM on Thursday 23 Oct 2014 (Local Time) from KHZL Reporting Station
Drizzle Drizzle  
Wind Chill: 38°   Ceiling: 700
Heat Index: 45°   Visibility: 10mi
Dew Point: 43°   Wind: 15mph
Humidity: 93%   Direction: 320°NW
Pressure: 29.86"   Gusts: 22mph
Location:  40.88°N, 76.4°W
Report Text: KHZL 231555Z AUTO 32013G19KT 10SM -DZ OVC007 07/06 A2986 RMK AO2
Loading
Personal Weather Stations






























Interactive Weather Map
Tropical Storm Tracking
New forecast layout! Learn more

10-Day Weather Forecast

Advertisements
Track Severe Weather on mobile